CheckWX is a tool to help pilots better visualize weather data.  It is not intended as a substitute for an official pre-flight weather briefing.

13:56:42 UTC

05U METAR
Eureka Airport
Eureka, Nevada, USA
Current

22 mins ago

K05U 261335Z AUTO 21008KT 10SM CLR 07/06 A3013 RMK A01
Observed
Apr-26 @ 13:35 UTC
Wind
  • 210° at 8 KTS
Visibility
10 SM
Flight Rules
VFR
Cloud Levels
  • Clear skies
Temperature
C / 45°F
Dewpoint
C / 43°F
Humidity
93%
Altimeter
30.13" Hg
Pressure
1020.32 hPa
Previous

42 mins ago

K05U 261315Z AUTO 20006KT 10SM CLR 06/05 A3013 RMK A01
Observed
Apr-26 @ 13:15 UTC
Wind
  • 200° at 6 KTS
Visibility
10 SM
Flight Rules
VFR
Cloud Levels
  • Clear skies
Temperature
C / 43°F
Dewpoint
C / 41°F
Humidity
93%
Altimeter
30.13" Hg
Pressure
1020.32 hPa
Previous

1 hour ago

K05U 261255Z AUTO 10SM CLR 06/05 A3013 RMK A01
Observed
Apr-26 @ 12:55 UTC
Visibility
10 SM
Flight Rules
VFR
Cloud Levels
  • Clear skies
Temperature
C / 43°F
Dewpoint
C / 41°F
Humidity
93%
Altimeter
30.13" Hg
Pressure
1020.32 hPa